Time;durP1;ratioP1;P1;durP2;ratioP2;P2;SDS_P1;SDS_P2;PMS_P1;PMS_P2;Temp;Humidity;BMP_temperature;BMP_pressure;BME280_temperature;BME280_humidity;BME280_pressure;Samples;Min_cycle;Max_cycle;Signal;HPM_P1;HPM_P2
2021/12/28 00:00:17;;;;;;;12.90;6.73;;;1.30;99.90;;;;;;4163353;28;20622;-77
2021/12/28 00:02:18;;;;;;;14.93;7.07;;;1.30;99.90;;;;;;4164091;28;20526;-77
2021/12/28 00:04:20;;;;;;;12.53;6.40;;;1.30;99.90;;;;;;4162165;28;20469;-73
2021/12/28 00:06:23;;;;;;;12.93;6.30;;;1.30;99.90;;;;;;4147702;28;20457;-76
2021/12/28 00:08:25;;;;;;;12.80;7.00;;;1.30;99.90;;;;;;4147809;28;20523;-77
2021/12/28 00:10:27;;;;;;;13.03;7.13;;;1.30;99.90;;;;;;4151499;28;20480;-77
2021/12/28 00:12:31;;;;;;;12.43;6.50;;;1.30;99.90;;;;;;4157274;28;20880;-76
2021/12/28 00:14:37;;;;;;;13.70;6.30;;;1.30;99.90;;;;;;4154922;28;20497;-76
2021/12/28 00:18:54;;;;;;;11.83;6.27;;;1.40;99.90;;;;;;4162450;28;20476;-77
2021/12/28 00:20:58;;;;;;;12.17;6.07;;;1.40;99.90;;;;;;4163718;28;20464;-76
2021/12/28 00:23:03;;;;;;;11.20;5.93;;;1.40;99.90;;;;;;4162440;28;20463;-77
2021/12/28 00:25:05;;;;;;;11.10;5.70;;;1.40;99.90;;;;;;4161220;28;20465;-77
2021/12/28 00:27:07;;;;;;;12.20;6.20;;;1.40;99.90;;;;;;4163309;28;20456;-77
2021/12/28 00:29:09;;;;;;;10.73;5.93;;;1.40;99.90;;;;;;4163201;28;20538;-77
2021/12/28 00:31:13;;;;;;;10.93;5.60;;;1.40;99.90;;;;;;4163235;28;20457;-76
2021/12/28 00:33:15;;;;;;;10.60;5.63;;;1.40;99.90;;;;;;4150814;28;20469;-77
2021/12/28 00:35:17;;;;;;;11.67;5.23;;;1.40;99.90;;;;;;4148744;28;20476;-76
2021/12/28 00:37:18;;;;;;;9.93;5.27;;;1.40;99.90;;;;;;4163354;28;20842;-76
2021/12/28 00:39:21;;;;;;;10.40;5.67;;;1.40;99.90;;;;;;4163215;28;20546;-76
2021/12/28 00:41:23;;;;;;;10.83;4.80;;;1.40;99.90;;;;;;4160350;28;20473;-76
2021/12/28 00:43:26;;;;;;;9.60;5.00;;;1.40;99.90;;;;;;4151141;28;20478;-77
2021/12/28 00:45:28;;;;;;;9.87;5.10;;;1.40;99.90;;;;;;4162853;28;20460;-77
2021/12/28 00:47:30;;;;;;;11.33;5.30;;;1.40;99.90;;;;;;4162675;28;20449;-77
2021/12/28 00:49:32;;;;;;;8.97;4.83;;;1.50;99.90;;;;;;4163636;28;20480;-77
2021/12/28 00:51:34;;;;;;;9.67;5.23;;;1.50;99.90;;;;;;4152974;28;20909;-76
2021/12/28 00:53:36;;;;;;;9.23;4.80;;;1.50;99.90;;;;;;4154501;28;20469;-77
2021/12/28 00:55:39;;;;;;;10.20;5.20;;;1.50;99.90;;;;;;4145869;28;20457;-76
2021/12/28 00:57:41;;;;;;;10.10;5.33;;;1.50;99.90;;;;;;4147392;28;20555;-76
2021/12/28 00:59:43;;;;;;;9.77;5.47;;;1.50;99.90;;;;;;4159303;28;20492;-77
2021/12/28 01:01:47;;;;;;;9.13;5.33;;;1.60;99.90;;;;;;4163278;28;20877;-75
2021/12/28 01:03:48;;;;;;;12.03;6.07;;;1.60;99.90;;;;;;4161873;28;20801;-76
2021/12/28 01:05:51;;;;;;;9.67;5.00;;;1.60;99.90;;;;;;4160674;28;20479;-77
2021/12/28 01:07:53;;;;;;;11.53;6.00;;;1.60;99.90;;;;;;4158517;28;20469;-75
2021/12/28 01:09:55;;;;;;;9.70;5.13;;;1.70;99.90;;;;;;4156962;28;20470;-76
2021/12/28 01:11:59;;;;;;;11.53;5.73;;;1.70;99.90;;;;;;4163511;28;20473;-76
2021/12/28 01:14:01;;;;;;;13.23;6.43;;;1.70;99.90;;;;;;4158824;28;20460;-77
2021/12/28 01:16:03;;;;;;;12.10;5.97;;;1.80;99.90;;;;;;4151128;28;20823;-76
2021/12/28 01:18:05;;;;;;;11.00;5.73;;;1.70;99.90;;;;;;4146838;28;20459;-76
2021/12/28 01:20:09;;;;;;;11.83;5.77;;;1.80;99.90;;;;;;4154838;28;20485;-77
2021/12/28 01:22:11;;;;;;;11.03;5.70;;;1.80;99.90;;;;;;4163567;28;20954;-75
2021/12/28 01:24:13;;;;;;;13.40;6.37;;;1.80;99.90;;;;;;4157197;28;20470;-76
2021/12/28 01:26:15;;;;;;;12.50;6.20;;;1.80;99.90;;;;;;4160608;28;20476;-76
2021/12/28 01:28:19;;;;;;;12.30;5.90;;;1.80;99.90;;;;;;4151554;28;20458;-77
2021/12/28 01:30:24;;;;;;;12.27;6.23;;;1.90;99.90;;;;;;4152972;28;20803;-76
2021/12/28 01:32:26;;;;;;;10.80;5.87;;;1.80;99.90;;;;;;4162239;28;20490;-75
2021/12/28 01:34:28;;;;;;;13.20;6.30;;;1.80;99.90;;;;;;4157263;28;20789;-77
2021/12/28 01:36:30;;;;;;;14.00;6.20;;;1.90;99.90;;;;;;4165710;28;20492;-77
2021/12/28 01:40:38;;;;;;;11.27;6.07;;;1.90;99.90;;;;;;4171261;28;20492;-84
2021/12/28 01:42:59;;;;;;;12.63;6.20;;;1.90;99.90;;;;;;4170671;28;20515;-85
2021/12/28 01:45:03;;;;;;;12.10;6.33;;;1.90;99.90;;;;;;4172469;28;20475;-85
2021/12/28 01:47:05;;;;;;;14.00;7.00;;;1.90;99.90;;;;;;4173786;28;20586;-84
2021/12/28 01:49:09;;;;;;;13.73;6.13;;;1.90;99.90;;;;;;4173866;28;20479;-84
2021/12/28 01:51:13;;;;;;;13.80;6.63;;;1.90;99.90;;;;;;4165238;28;20471;-84
2021/12/28 01:53:16;;;;;;;13.43;6.97;;;1.90;99.90;;;;;;4163574;28;20457;-84
2021/12/28 01:55:18;;;;;;;13.37;6.53;;;2.00;99.90;;;;;;4170437;28;20446;-84
2021/12/28 01:57:20;;;;;;;13.83;6.63;;;2.00;99.90;;;;;;4168003;28;20489;-84
2021/12/28 01:59:23;;;;;;;14.63;6.90;;;2.00;99.90;;;;;;4164774;28;20989;-84
2021/12/28 02:01:27;;;;;;;15.83;7.40;;;2.00;99.90;;;;;;4168754;28;20464;-85
2021/12/28 02:03:30;;;;;;;14.83;6.67;;;2.00;99.90;;;;;;4169343;28;20753;-84
2021/12/28 02:05:32;;;;;;;13.43;6.67;;;2.00;99.90;;;;;;4169209;28;20458;-84
2021/12/28 02:07:34;;;;;;;15.13;7.23;;;2.00;99.90;;;;;;4164552;28;20500;-85
2021/12/28 02:09:37;;;;;;;14.03;6.60;;;2.10;99.90;;;;;;4155076;28;20486;-84
2021/12/28 02:11:39;;;;;;;12.97;6.43;;;2.10;99.90;;;;;;4152534;28;20473;-85
2021/12/28 02:13:41;;;;;;;12.70;6.67;;;2.10;99.90;;;;;;4157368;28;20458;-84
2021/12/28 02:15:43;;;;;;;13.57;6.40;;;2.10;99.90;;;;;;4168735;28;20507;-84
2021/12/28 02:17:46;;;;;;;13.13;6.97;;;2.10;99.90;;;;;;4161145;28;20496;-84
2021/12/28 02:19:48;;;;;;;14.97;7.30;;;2.10;99.90;;;;;;4171388;28;20481;-84
2021/12/28 02:21:51;;;;;;;15.83;7.60;;;2.10;99.90;;;;;;4169357;28;20468;-84
2021/12/28 02:23:53;;;;;;;15.53;6.83;;;2.10;99.90;;;;;;4168630;28;20943;-84
2021/12/28 02:25:55;;;;;;;12.20;6.50;;;2.20;99.90;;;;;;4167328;28;20482;-84
2021/12/28 02:27:58;;;;;;;13.27;6.57;;;2.20;99.90;;;;;;4168911;28;20449;-85
2021/12/28 02:29:59;;;;;;;13.50;6.67;;;2.20;99.90;;;;;;4169153;28;20484;-84
2021/12/28 02:32:01;;;;;;;13.97;6.70;;;2.30;99.90;;;;;;4168254;28;20462;-84
2021/12/28 02:34:04;;;;;;;14.90;7.23;;;2.30;99.90;;;;;;4165253;28;20470;-84
2021/12/28 02:36:06;;;;;;;13.90;6.90;;;2.20;99.90;;;;;;4169138;28;20462;-84
2021/12/28 02:38:11;;;;;;;12.20;6.50;;;2.30;99.90;;;;;;4169564;28;20490;-84
2021/12/28 02:40:17;;;;;;;13.93;6.13;;;2.20;99.90;;;;;;4169016;28;20473;-84
2021/12/28 02:42:20;;;;;;;13.47;6.57;;;2.20;99.90;;;;;;4161129;28;20459;-84
2021/12/28 02:44:22;;;;;;;11.13;6.13;;;2.20;99.90;;;;;;4167470;28;21024;-84
2021/12/28 02:46:23;;;;;;;16.50;7.37;;;2.20;99.90;;;;;;4169321;28;20458;-84
2021/12/28 02:48:27;;;;;;;12.43;6.10;;;2.20;99.90;;;;;;4167646;28;20470;-84
2021/12/28 02:50:32;;;;;;;11.70;6.00;;;2.20;99.90;;;;;;4166164;28;20458;-84
2021/12/28 02:52:36;;;;;;;13.37;6.97;;;2.10;99.90;;;;;;4168086;28;20943;-84
2021/12/28 02:54:40;;;;;;;12.57;6.80;;;2.20;99.90;;;;;;4167386;28;20512;-84
2021/12/28 02:56:42;;;;;;;12.27;6.40;;;2.20;99.90;;;;;;4167423;28;20472;-84
2021/12/28 02:58:46;;;;;;;13.00;6.37;;;2.20;99.90;;;;;;4167768;28;20496;-84
2021/12/28 03:00:52;;;;;;;12.63;6.50;;;2.10;99.90;;;;;;4171129;28;20470;-84
2021/12/28 03:02:53;;;;;;;13.37;6.67;;;2.10;99.90;;;;;;4167719;28;20520;-84
2021/12/28 03:04:55;;;;;;;13.70;6.40;;;2.10;99.90;;;;;;4168641;28;20462;-85
2021/12/28 03:06:57;;;;;;;12.37;6.03;;;2.10;99.90;;;;;;4167949;28;20709;-84
2021/12/28 03:09:01;;;;;;;13.50;6.80;;;2.10;99.90;;;;;;4169257;28;20488;-84
2021/12/28 03:11:05;;;;;;;13.23;6.70;;;2.20;99.90;;;;;;4167502;28;20496;-84
2021/12/28 03:13:09;;;;;;;12.87;6.67;;;2.10;99.90;;;;;;4168623;28;20446;-84
2021/12/28 03:15:11;;;;;;;10.40;5.73;;;2.10;99.90;;;;;;4166837;28;20464;-84
2021/12/28 03:17:13;;;;;;;9.37;5.20;;;2.10;99.90;;;;;;4167983;28;20492;-84
2021/12/28 03:19:14;;;;;;;13.60;6.20;;;2.10;99.90;;;;;;4150783;28;20556;-84
2021/12/28 03:21:18;;;;;;;12.87;6.30;;;2.00;99.90;;;;;;4157955;28;20461;-84
2021/12/28 03:23:22;;;;;;;10.67;5.60;;;2.00;99.90;;;;;;4167913;28;20927;-84
2021/12/28 03:25:24;;;;;;;11.23;6.17;;;2.00;99.90;;;;;;4165067;28;20508;-85
2021/12/28 03:27:27;;;;;;;11.70;5.13;;;2.00;99.90;;;;;;4167211;28;21055;-85
2021/12/28 03:29:28;;;;;;;9.67;5.00;;;2.00;99.90;;;;;;4169283;28;20492;-84
2021/12/28 03:31:30;;;;;;;12.90;5.90;;;2.00;99.90;;;;;;4167628;28;20492;-85
2021/12/28 03:33:34;;;;;;;10.47;5.77;;;2.00;99.90;;;;;;4167863;28;20454;-84
2021/12/28 03:35:36;;;;;;;10.83;5.33;;;2.10;99.90;;;;;;4167860;28;20454;-85
2021/12/28 03:37:39;;;;;;;11.37;5.53;;;2.10;99.90;;;;;;4154171;28;20486;-84
2021/12/28 03:39:40;;;;;;;10.20;5.20;;;2.10;99.90;;;;;;4153142;28;20540;-84
2021/12/28 03:41:42;;;;;;;11.50;5.80;;;2.40;99.90;;;;;;4152716;28;20459;-84
2021/12/28 03:43:48;;;;;;;11.03;5.60;;;2.20;99.90;;;;;;4153547;28;20470;-84
2021/12/28 03:45:50;;;;;;;10.77;5.47;;;2.20;99.90;;;;;;4156977;28;20487;-84
2021/12/28 03:47:52;;;;;;;10.13;5.20;;;2.20;99.90;;;;;;4168186;28;20511;-84
2021/12/28 03:49:54;;;;;;;8.93;4.07;;;2.20;99.90;;;;;;4169443;28;20535;-84
2021/12/28 03:51:56;;;;;;;9.03;4.80;;;2.20;99.90;;;;;;4166529;28;20462;-84
2021/12/28 03:53:57;;;;;;;8.90;5.00;;;2.20;99.90;;;;;;4161380;28;20469;-84
2021/12/28 03:55:59;;;;;;;9.37;4.40;;;2.20;99.90;;;;;;4168992;28;20970;-84
2021/12/28 03:58:02;;;;;;;8.27;4.53;;;2.20;99.90;;;;;;4166176;28;20485;-85
2021/12/28 04:00:07;;;;;;;8.87;4.80;;;2.20;99.90;;;;;;4175495;28;20914;-84
2021/12/28 04:02:09;;;;;;;8.70;4.97;;;2.20;99.90;;;;;;4167263;28;20457;-84
2021/12/28 04:04:10;;;;;;;7.67;4.40;;;2.20;99.90;;;;;;4169401;28;20465;-84
2021/12/28 04:06:12;;;;;;;7.23;4.23;;;2.30;99.90;;;;;;4168893;28;20462;-84
2021/12/28 04:08:20;;;;;;;7.90;4.40;;;2.30;99.90;;;;;;4169510;28;20450;-84
2021/12/28 04:10:31;;;;;;;9.07;4.13;;;2.30;99.90;;;;;;4152916;28;20473;-84
2021/12/28 04:12:33;;;;;;;8.77;4.30;;;2.30;99.90;;;;;;4168386;28;20958;-84
2021/12/28 04:14:34;;;;;;;9.07;4.33;;;2.30;99.90;;;;;;4169824;28;20445;-84
2021/12/28 04:16:38;;;;;;;8.87;4.40;;;2.30;99.90;;;;;;4170996;28;20500;-84
2021/12/28 04:18:40;;;;;;;8.43;4.20;;;2.30;99.90;;;;;;4168489;28;20490;-84
2021/12/28 04:20:42;;;;;;;6.87;4.03;;;2.30;99.90;;;;;;4169954;28;20464;-83
2021/12/28 04:22:44;;;;;;;7.27;4.43;;;2.30;99.90;;;;;;4168227;28;20474;-84
2021/12/28 04:24:46;;;;;;;7.23;4.27;;;2.40;99.90;;;;;;4170761;28;20858;-84
2021/12/28 04:26:47;;;;;;;7.47;4.50;;;2.30;99.90;;;;;;4160064;28;20472;-84
2021/12/28 04:28:49;;;;;;;8.93;3.97;;;2.40;99.90;;;;;;4158749;28;20505;-84
2021/12/28 04:30:51;;;;;;;8.00;4.37;;;2.40;99.90;;;;;;4165448;28;20445;-84
2021/12/28 04:32:54;;;;;;;8.33;4.43;;;2.30;99.90;;;;;;4170101;28;20454;-84
2021/12/28 04:34:56;;;;;;;8.43;4.67;;;2.30;99.90;;;;;;4163712;28;20482;-84
2021/12/28 04:36:57;;;;;;;8.23;4.10;;;2.40;99.90;;;;;;4155422;28;20486;-84
2021/12/28 04:38:59;;;;;;;8.37;4.60;;;2.40;99.90;;;;;;4168432;28;20523;-84
2021/12/28 04:41:01;;;;;;;9.50;4.70;;;2.40;99.90;;;;;;4171510;28;20457;-84
2021/12/28 04:43:03;;;;;;;11.30;4.60;;;2.40;99.90;;;;;;4169616;28;20454;-84
2021/12/28 04:45:08;;;;;;;8.87;4.53;;;2.40;99.90;;;;;;4169970;28;20533;-84
2021/12/28 04:47:10;;;;;;;8.30;4.57;;;2.40;99.90;;;;;;4171677;28;20848;-84
2021/12/28 04:49:15;;;;;;;8.47;4.80;;;2.40;99.90;;;;;;4171705;28;20474;-84
2021/12/28 04:51:16;;;;;;;10.00;5.13;;;2.50;99.90;;;;;;4170701;28;20454;-85
2021/12/28 04:53:18;;;;;;;9.57;4.83;;;2.50;99.90;;;;;;4168586;28;20547;-84
2021/12/28 04:55:20;;;;;;;9.33;4.97;;;2.50;99.90;;;;;;4172368;28;20462;-83
2021/12/28 04:57:22;;;;;;;9.97;5.57;;;2.50;99.90;;;;;;4171404;28;20488;-84
2021/12/28 04:59:23;;;;;;;12.23;5.47;;;2.50;99.90;;;;;;4169592;28;20998;-84
2021/12/28 05:01:25;;;;;;;11.67;6.03;;;2.50;99.90;;;;;;4171004;28;20450;-84
2021/12/28 05:03:27;;;;;;;11.70;6.47;;;2.60;99.90;;;;;;4170590;28;20481;-84
2021/12/28 05:05:30;;;;;;;10.07;5.87;;;2.60;99.90;;;;;;4172433;28;20461;-84
2021/12/28 05:07:32;;;;;;;13.17;6.00;;;2.60;99.90;;;;;;4171512;28;20461;-84
2021/12/28 05:09:33;;;;;;;10.27;5.60;;;2.60;99.90;;;;;;4171934;28;20507;-84
2021/12/28 05:11:36;;;;;;;12.60;5.73;;;2.80;99.90;;;;;;4160267;28;20458;-84
2021/12/28 05:13:37;;;;;;;12.87;5.60;;;2.70;99.90;;;;;;4174099;28;20470;-84
2021/12/28 05:15:42;;;;;;;11.53;6.17;;;2.70;99.90;;;;;;4175998;28;20453;-84
2021/12/28 05:17:44;;;;;;;13.00;6.47;;;2.70;99.90;;;;;;4175006;28;20471;-83
2021/12/28 05:19:46;;;;;;;11.93;6.17;;;2.70;99.90;;;;;;4176616;28;20501;-85
2021/12/28 05:21:49;;;;;;;11.93;5.63;;;2.70;99.90;;;;;;4173894;28;20458;-85
2021/12/28 05:23:51;;;;;;;13.70;5.67;;;2.70;99.90;;;;;;4159727;28;20844;-83
2021/12/28 05:25:52;;;;;;;12.93;6.53;;;2.70;99.90;;;;;;4170587;28;20993;-84
2021/12/28 05:27:54;;;;;;;11.10;5.43;;;2.70;99.90;;;;;;4171118;28;20446;-84
2021/12/28 05:29:56;;;;;;;11.90;5.60;;;2.70;99.90;;;;;;4167121;28;20520;-84
2021/12/28 05:31:58;;;;;;;11.43;5.93;;;2.70;99.90;;;;;;4155376;28;20438;-84
2021/12/28 05:34:00;;;;;;;12.47;6.20;;;2.70;99.90;;;;;;4167080;28;20473;-84
2021/12/28 05:36:02;;;;;;;12.20;6.33;;;2.70;99.90;;;;;;4170849;28;20446;-84
2021/12/28 05:38:05;;;;;;;11.97;5.97;;;2.70;99.90;;;;;;4166733;28;20493;-84
2021/12/28 05:40:09;;;;;;;10.97;5.80;;;2.80;99.90;;;;;;4169440;28;20524;-84
2021/12/28 05:42:11;;;;;;;11.27;5.77;;;2.80;99.90;;;;;;4171462;28;20777;-84
2021/12/28 05:44:12;;;;;;;13.10;6.03;;;2.80;99.90;;;;;;4171060;28;20461;-84
2021/12/28 05:46:14;;;;;;;13.33;6.37;;;2.70;99.90;;;;;;4167967;28;20474;-84
2021/12/28 05:48:16;;;;;;;14.03;6.90;;;2.80;99.90;;;;;;4165119;28;20523;-84
2021/12/28 05:50:18;;;;;;;14.07;6.43;;;2.80;99.90;;;;;;4170706;28;20477;-84
2021/12/28 05:52:20;;;;;;;12.50;6.30;;;2.80;99.90;;;;;;4169261;28;20445;-84
2021/12/28 05:54:23;;;;;;;13.97;6.80;;;2.80;99.90;;;;;;4169456;28;20488;-84
2021/12/28 05:56:25;;;;;;;12.33;5.87;;;2.80;99.90;;;;;;4171174;28;20438;-84
2021/12/28 05:58:27;;;;;;;13.77;6.20;;;2.80;99.90;;;;;;4171486;28;20553;-84
2021/12/28 06:00:29;;;;;;;15.30;7.00;;;2.80;99.90;;;;;;4169533;28;21642;-84
2021/12/28 06:02:31;;;;;;;14.13;6.37;;;2.70;99.90;;;;;;4166177;28;20527;-84
2021/12/28 06:04:33;;;;;;;13.57;7.13;;;2.80;99.90;;;;;;4170192;28;20504;-84
2021/12/28 06:06:35;;;;;;;15.63;7.63;;;2.80;99.90;;;;;;4169709;28;20525;-84
2021/12/28 06:08:36;;;;;;;18.67;7.50;;;2.80;99.90;;;;;;4168343;28;20822;-84
2021/12/28 06:10:40;;;;;;;15.07;7.47;;;2.80;99.90;;;;;;4164975;28;20501;-84
2021/12/28 06:12:42;;;;;;;14.83;7.50;;;2.80;99.90;;;;;;4164912;28;20463;-84
2021/12/28 06:14:44;;;;;;;16.13;7.53;;;2.80;99.90;;;;;;4161812;28;20532;-83
2021/12/28 06:16:45;;;;;;;15.87;7.37;;;2.80;99.90;;;;;;4164068;28;20454;-84
2021/12/28 06:18:47;;;;;;;14.47;7.20;;;2.80;99.90;;;;;;4159885;28;20555;-84
2021/12/28 06:20:49;;;;;;;15.67;7.47;;;2.80;99.90;;;;;;4163621;28;20797;-84
2021/12/28 06:22:50;;;;;;;17.10;7.97;;;2.80;99.90;;;;;;4164124;28;20465;-84
2021/12/28 06:24:52;;;;;;;15.80;7.27;;;2.80;99.90;;;;;;4165130;28;20515;-84
2021/12/28 06:26:55;;;;;;;14.97;7.43;;;2.80;99.90;;;;;;4165660;28;20473;-84
2021/12/28 06:28:58;;;;;;;15.33;8.00;;;2.80;99.90;;;;;;4164903;28;20541;-83
2021/12/28 06:30:59;;;;;;;17.13;8.03;;;2.80;99.90;;;;;;4163889;28;20501;-84
2021/12/28 06:33:01;;;;;;;17.77;8.13;;;2.80;99.90;;;;;;4159318;28;21041;-85
2021/12/28 06:35:04;;;;;;;16.47;7.90;;;2.80;99.90;;;;;;4160835;28;21208;-84
2021/12/28 06:37:06;;;;;;;20.27;9.10;;;2.80;99.90;;;;;;4162891;28;20580;-85
2021/12/28 06:39:07;;;;;;;16.73;8.00;;;2.90;99.90;;;;;;4163753;28;20551;-84
2021/12/28 06:41:09;;;;;;;18.33;8.07;;;2.90;99.90;;;;;;4163580;28;20570;-84
2021/12/28 06:43:13;;;;;;;18.37;8.70;;;2.90;99.90;;;;;;4160438;28;20446;-85
2021/12/28 06:45:15;;;;;;;17.70;8.30;;;2.90;99.90;;;;;;4164783;28;20462;-84
2021/12/28 06:47:16;;;;;;;18.77;8.63;;;2.80;99.90;;;;;;4160548;28;21139;-84
2021/12/28 06:49:18;;;;;;;18.70;8.27;;;2.90;99.90;;;;;;4163294;28;20470;-84
2021/12/28 06:51:20;;;;;;;17.33;8.63;;;2.80;99.90;;;;;;4163425;28;20863;-84
2021/12/28 06:53:22;;;;;;;19.47;8.83;;;3.00;99.90;;;;;;4160742;28;20523;-84
2021/12/28 06:55:24;;;;;;;17.00;8.77;;;2.90;99.90;;;;;;4164564;28;20460;-85
2021/12/28 06:57:25;;;;;;;20.03;8.63;;;2.80;99.90;;;;;;4165521;28;20481;-84
2021/12/28 06:59:29;;;;;;;21.90;9.67;;;2.90;99.90;;;;;;4159568;28;20551;-84
2021/12/28 07:01:30;;;;;;;20.90;8.93;;;2.90;99.90;;;;;;4162136;28;20889;-85
2021/12/28 07:03:32;;;;;;;20.37;8.70;;;2.90;99.90;;;;;;4164068;28;20871;-84
2021/12/28 07:05:35;;;;;;;16.73;8.40;;;2.90;99.90;;;;;;4165678;28;20906;-84
2021/12/28 07:07:38;;;;;;;16.03;7.87;;;2.90;99.90;;;;;;4164253;28;20906;-84
2021/12/28 07:09:40;;;;;;;18.27;9.10;;;2.90;99.90;;;;;;4164014;28;20474;-84
2021/12/28 07:11:41;;;;;;;17.93;8.87;;;2.90;99.90;;;;;;4164509;28;20464;-84
2021/12/28 07:13:44;;;;;;;18.80;8.80;;;2.90;99.90;;;;;;4166458;28;20492;-84
2021/12/28 07:15:47;;;;;;;20.10;8.87;;;2.90;99.90;;;;;;4166805;28;20481;-84
2021/12/28 07:17:50;;;;;;;15.90;8.10;;;2.80;99.90;;;;;;4159711;28;20482;-84
2021/12/28 07:19:51;;;;;;;18.20;8.70;;;2.90;99.90;;;;;;4164763;28;20494;-84
2021/12/28 07:21:54;;;;;;;15.90;8.27;;;2.80;99.90;;;;;;4165030;28;20700;-84
2021/12/28 07:23:55;;;;;;;17.83;8.77;;;2.90;99.90;;;;;;4163211;28;20476;-84
2021/12/28 07:25:58;;;;;;;22.67;8.87;;;2.80;99.90;;;;;;4161253;28;20458;-84
2021/12/28 07:28:00;;;;;;;17.77;8.50;;;2.90;99.90;;;;;;4165984;28;20466;-85
2021/12/28 07:30:02;;;;;;;18.97;9.13;;;2.90;99.90;;;;;;4161457;28;20900;-84
2021/12/28 07:32:08;;;;;;;16.07;8.37;;;2.90;99.90;;;;;;4162250;28;21013;-85
2021/12/28 07:34:10;;;;;;;17.63;8.37;;;2.80;99.90;;;;;;4161567;28;20508;-84
2021/12/28 07:36:11;;;;;;;17.37;9.07;;;2.90;99.90;;;;;;4165393;28;20496;-85
2021/12/28 07:38:13;;;;;;;18.90;8.97;;;2.90;99.90;;;;;;4164876;28;20952;-84
2021/12/28 07:40:15;;;;;;;15.77;8.47;;;2.90;99.90;;;;;;4183289;23;20501;-73
2021/12/28 07:42:17;;;;;;;20.00;8.87;;;2.80;99.90;;;;;;4174501;28;20523;-72
2021/12/28 07:44:19;;;;;;;21.57;9.40;;;2.90;99.90;;;;;;4173328;28;20531;-73
2021/12/28 07:46:21;;;;;;;21.27;10.03;;;2.90;99.90;;;;;;4173200;28;21013;-73
2021/12/28 07:48:24;;;;;;;21.30;10.30;;;2.90;99.90;;;;;;4172962;28;20483;-74
2021/12/28 07:50:26;;;;;;;21.37;10.03;;;2.90;99.90;;;;;;4158693;28;20912;-74
2021/12/28 07:52:28;;;;;;;22.07;9.33;;;3.00;99.90;;;;;;4156321;28;20493;-74
2021/12/28 07:54:29;;;;;;;19.53;9.27;;;3.00;99.90;;;;;;4155842;28;20519;-75
2021/12/28 07:56:31;;;;;;;19.43;8.80;;;3.00;99.90;;;;;;4158289;28;20453;-75
2021/12/28 07:58:33;;;;;;;18.07;8.50;;;3.00;99.90;;;;;;4158476;28;20473;-74
2021/12/28 08:00:35;;;;;;;16.40;7.87;;;3.00;99.90;;;;;;4156718;28;20490;-74
2021/12/28 08:02:36;;;;;;;17.40;8.83;;;3.00;99.90;;;;;;4157216;28;20504;-76
2021/12/28 08:04:39;;;;;;;18.43;8.80;;;3.00;99.90;;;;;;4157272;28;20501;-73
2021/12/28 08:06:41;;;;;;;18.17;9.00;;;3.00;99.90;;;;;;4157764;28;21462;-74
2021/12/28 08:08:43;;;;;;;21.63;9.70;;;3.00;99.90;;;;;;4153300;28;20527;-76
2021/12/28 08:10:45;;;;;;;17.07;7.70;;;3.00;99.90;;;;;;4157607;28;20469;-75
2021/12/28 08:12:47;;;;;;;18.37;8.30;;;3.00;99.90;;;;;;4157809;28;20454;-75
2021/12/28 08:14:49;;;;;;;19.07;9.53;;;3.00;99.90;;;;;;4158249;28;20457;-75
2021/12/28 08:16:51;;;;;;;17.27;8.43;;;3.00;99.90;;;;;;4158058;28;20469;-76
2021/12/28 08:18:52;;;;;;;16.30;8.13;;;3.00;99.90;;;;;;4156815;28;20474;-76
2021/12/28 08:20:55;;;;;;;19.43;9.17;;;3.00;99.90;;;;;;4154877;28;20485;-76
2021/12/28 08:22:57;;;;;;;20.03;8.93;;;3.00;99.90;;;;;;4151740;28;20473;-75
2021/12/28 08:25:00;;;;;;;16.77;8.20;;;3.00;99.90;;;;;;4150870;28;20457;-73
2021/12/28 08:27:02;;;;;;;18.13;8.33;;;2.90;99.90;;;;;;4152822;28;20458;-77
2021/12/28 08:29:04;;;;;;;18.93;8.47;;;2.90;99.90;;;;;;4153217;28;20530;-75
2021/12/28 08:31:06;;;;;;;15.40;7.63;;;3.00;99.90;;;;;;4156011;28;20469;-76
2021/12/28 08:33:08;;;;;;;14.73;7.93;;;3.00;99.90;;;;;;4157227;28;20469;-74
2021/12/28 08:35:12;;;;;;;19.03;8.27;;;3.10;99.90;;;;;;4157464;28;20454;-75
2021/12/28 08:37:15;;;;;;;19.57;7.90;;;3.10;99.90;;;;;;4154861;28;20547;-75
2021/12/28 08:39:17;;;;;;;18.90;8.27;;;3.10;99.90;;;;;;4156936;28;20497;-73
2021/12/28 08:41:18;;;;;;;14.63;7.03;;;3.20;99.90;;;;;;4155343;28;20466;-74
2021/12/28 08:43:20;;;;;;;16.83;8.17;;;3.20;99.90;;;;;;4156965;28;20930;-74
2021/12/28 08:45:22;;;;;;;16.30;7.70;;;3.20;99.90;;;;;;4160067;28;20474;-74
2021/12/28 08:47:26;;;;;;;19.17;7.73;;;3.20;99.90;;;;;;4158784;28;20914;-75
2021/12/28 08:49:28;;;;;;;15.17;7.33;;;3.20;99.90;;;;;;4158574;28;20485;-74
2021/12/28 08:51:30;;;;;;;16.03;7.73;;;3.20;99.90;;;;;;4159743;28;20512;-76
2021/12/28 08:53:33;;;;;;;15.20;7.30;;;3.30;99.90;;;;;;4159474;28;20461;-76
2021/12/28 08:55:35;;;;;;;14.77;7.40;;;3.30;99.90;;;;;;4161206;28;20493;-76
2021/12/28 08:57:37;;;;;;;17.43;7.97;;;3.30;99.90;;;;;;4159911;28;20453;-75
2021/12/28 08:59:41;;;;;;;17.00;7.60;;;3.30;99.90;;;;;;4160321;28;20489;-73
2021/12/28 09:01:43;;;;;;;16.27;7.70;;;3.40;99.90;;;;;;4159155;28;20473;-74
2021/12/28 09:03:45;;;;;;;16.73;7.60;;;3.40;99.90;;;;;;4160776;28;20469;-74
2021/12/28 09:05:46;;;;;;;20.47;7.50;;;3.40;99.90;;;;;;4159964;28;21166;-73
2021/12/28 09:07:48;;;;;;;15.40;7.27;;;3.40;99.90;;;;;;4159740;28;20881;-74
2021/12/28 09:09:51;;;;;;;13.67;6.80;;;3.40;99.90;;;;;;4159912;28;20531;-73
2021/12/28 09:11:53;;;;;;;11.47;6.43;;;3.40;99.90;;;;;;4161210;28;20511;-74
2021/12/28 09:13:55;;;;;;;16.70;7.07;;;3.50;99.90;;;;;;4159522;28;20457;-74
2021/12/28 09:15:56;;;;;;;14.07;6.77;;;3.50;99.90;;;;;;4161776;28;20941;-73
2021/12/28 09:17:58;;;;;;;14.77;7.10;;;3.50;99.90;;;;;;4161878;28;20523;-73
2021/12/28 09:20:00;;;;;;;14.90;6.30;;;3.50;99.90;;;;;;4159465;28;20493;-73
2021/12/28 09:22:02;;;;;;;14.27;6.80;;;3.60;99.90;;;;;;4161819;28;20457;-72
2021/12/28 09:24:04;;;;;;;14.00;6.47;;;3.60;99.90;;;;;;4159952;28;20474;-76
2021/12/28 09:26:07;;;;;;;14.50;7.10;;;3.60;99.90;;;;;;4158688;28;20470;-72
2021/12/28 09:28:10;;;;;;;15.90;7.20;;;3.60;99.90;;;;;;4160503;28;20494;-73
2021/12/28 09:30:13;;;;;;;11.00;5.53;;;3.70;99.90;;;;;;4161583;28;21365;-72
2021/12/28 09:32:14;;;;;;;14.10;6.87;;;3.70;99.90;;;;;;4162323;28;20508;-75
2021/12/28 09:34:16;;;;;;;16.03;6.70;;;3.70;99.90;;;;;;4158772;28;20527;-73
2021/12/28 09:36:18;;;;;;;15.23;6.63;;;3.70;99.90;;;;;;4159911;28;20484;-72
2021/12/28 09:38:21;;;;;;;13.07;6.20;;;3.70;99.90;;;;;;4161431;28;20508;-73
2021/12/28 09:40:23;;;;;;;13.43;6.03;;;3.80;99.90;;;;;;4159506;28;20554;-73
2021/12/28 09:42:27;;;;;;;12.97;6.30;;;3.80;99.90;;;;;;4159800;28;20457;-74
2021/12/28 09:44:30;;;;;;;17.27;7.43;;;3.80;99.90;;;;;;4160865;28;20512;-73
2021/12/28 09:46:32;;;;;;;13.43;6.47;;;3.80;99.90;;;;;;4160264;28;20458;-72
2021/12/28 09:48:34;;;;;;;13.37;5.90;;;3.80;99.90;;;;;;4159507;28;20457;-72
2021/12/28 09:50:36;;;;;;;16.63;5.70;;;3.80;99.90;;;;;;4158100;28;20547;-73
2021/12/28 09:52:38;;;;;;;11.97;5.70;;;3.80;99.90;;;;;;4158510;28;20853;-73
2021/12/28 09:54:41;;;;;;;13.43;5.50;;;3.80;99.90;;;;;;4156333;28;21009;-75
2021/12/28 09:56:42;;;;;;;10.80;5.37;;;3.80;99.90;;;;;;4159249;28;20516;-75
2021/12/28 09:58:46;;;;;;;14.23;6.37;;;3.90;99.90;;;;;;4159640;28;20519;-73
2021/12/28 10:00:47;;;;;;;12.20;6.07;;;4.00;99.90;;;;;;4158046;28;20554;-74
2021/12/28 10:02:49;;;;;;;13.90;6.50;;;3.90;99.90;;;;;;4160673;28;20461;-74
2021/12/28 10:04:56;;;;;;;14.03;6.00;;;4.00;99.90;;;;;;4156600;28;20474;-74
2021/12/28 10:07:17;;;;;;;14.23;6.50;;;4.00;99.90;;;;;;4158269;28;20465;-77
2021/12/28 10:09:21;;;;;;;11.13;5.77;;;4.10;99.90;;;;;;4159862;28;20596;-75
2021/12/28 10:11:32;;;;;;;11.73;5.57;;;4.20;99.90;;;;;;4158534;28;20798;-75
2021/12/28 10:13:34;;;;;;;12.33;5.57;;;4.20;99.90;;;;;;4158659;28;20790;-74
2021/12/28 10:15:40;;;;;;;10.23;5.00;;;4.20;99.90;;;;;;4157938;28;20457;-74
2021/12/28 10:17:44;;;;;;;9.70;5.00;;;4.30;99.90;;;;;;4158750;28;20469;-74
2021/12/28 10:19:46;;;;;;;12.20;5.10;;;4.40;99.90;;;;;;4158125;28;21006;-74
2021/12/28 10:21:48;;;;;;;10.20;4.93;;;4.40;99.90;;;;;;4158494;28;20493;-75
2021/12/28 10:23:50;;;;;;;8.87;4.57;;;4.50;99.90;;;;;;4157121;28;20839;-75
2021/12/28 10:25:54;;;;;;;12.23;5.33;;;4.60;99.90;;;;;;4158349;28;20462;-74
2021/12/28 10:27:58;;;;;;;12.60;4.80;;;4.60;99.90;;;;;;4157831;28;20470;-75
2021/12/28 10:30:11;;;;;;;11.67;5.20;;;4.70;99.90;;;;;;4157905;28;20474;-75
2021/12/28 10:32:19;;;;;;;9.37;5.20;;;4.70;99.90;;;;;;4157061;28;21136;-74
2021/12/28 10:34:20;;;;;;;12.17;5.43;;;4.80;99.90;;;;;;4158426;28;20454;-74
2021/12/28 10:36:32;;;;;;;15.40;5.50;;;4.80;99.90;;;;;;4158705;28;20463;-76
2021/12/28 10:38:37;;;;;;;9.83;4.87;;;4.90;99.90;;;;;;4159062;28;20473;-76
2021/12/28 10:40:46;;;;;;;11.90;5.17;;;4.90;99.90;;;;;;4157807;28;20567;-75
2021/12/28 10:42:51;;;;;;;15.33;5.57;;;5.00;99.90;;;;;;4159426;28;20483;-78